Time;durP1;ratioP1;P1;durP2;ratioP2;P2;SDS_P1;SDS_P2;PMS_P1;PMS_P2;Temp;Humidity;BMP_temperature;BMP_pressure;BME280_temperature;BME280_humidity;BME280_pressure;Samples;Min_cycle;Max_cycle;Signal;HPM_P1;HPM_P2
2022/08/22 00:01:22;;;;;;;9.07;7.65;;;;;;;19.72;74.19;94597.28;5018006;28;20029;-85
2022/08/22 00:03:50;;;;;;;;;;;;;;;19.95;73.47;94595.56;5018671;28;20037;-84
2022/08/22 00:06:30;;;;;;;10.68;7.68;;;;;;;19.91;73.27;94589.31;5019952;28;19995;-85
2022/08/22 00:09:28;;;;;;;12.48;8.35;;;;;;;20.06;72.82;94592.38;5017768;28;20038;-85
2022/08/22 00:12:28;;;;;;;12.18;7.47;;;;;;;20.08;72.27;94590.09;5018055;28;20037;-85
2022/08/22 00:15:12;;;;;;;13.80;9.40;;;;;;;19.92;73.17;94580.13;5017773;28;20051;-85
2022/08/22 00:17:54;;;;;;;13.80;9.98;;;;;;;19.34;73.39;94519.03;5016607;28;20047;-87
2022/08/22 00:20:27;;;;;;;16.15;9.55;;;;;;;19.30;73.49;94493.97;5017322;28;20037;-84
2022/08/22 00:23:11;;;;;;;17.77;10.00;;;;;;;19.43;73.48;94514.28;5018367;28;20512;-85
2022/08/22 00:25:57;;;;;;;17.40;10.40;;;;;;;19.20;74.32;94516.75;5017351;28;20041;-84
2022/08/22 00:28:39;;;;;;;18.88;10.93;;;;;;;19.53;75.23;94584.47;5017584;28;20492;-85
2022/08/22 00:31:36;;;;;;;16.92;11.32;;;;;;;19.42;75.63;94580.72;5017243;28;20587;-85
2022/08/22 00:34:16;;;;;;;15.23;10.63;;;;;;;19.23;75.34;94543.69;5017509;28;20041;-85
2022/08/22 00:37:01;;;;;;;16.38;10.80;;;;;;;19.26;75.67;94537.66;5017374;28;20531;-85
2022/08/22 00:39:59;;;;;;;14.93;11.75;;;;;;;18.86;75.29;94497.38;5017680;28;20514;-85
2022/08/22 00:42:43;;;;;;;16.35;12.27;;;;;;;19.54;75.24;94569.13;5017535;28;20045;-84
2022/08/22 00:45:18;;;;;;;17.10;12.70;;;;;;;19.62;74.78;94576.25;5016804;28;20159;-86
2022/08/22 00:47:45;;;;;;;19.67;13.23;;;;;;;19.00;75.41;94497.00;5016932;28;20515;-85
2022/08/22 00:50:43;;;;;;;18.48;13.25;;;;;;;19.41;75.78;94595.28;5017384;28;20499;-85
2022/08/22 00:53:20;;;;;;;19.92;14.13;;;;;;;19.65;75.01;94576.38;5018906;28;20638;-86
2022/08/22 00:55:57;;;;;;;18.70;14.02;;;;;;;19.47;75.26;94556.28;5016856;28;20427;-86
2022/08/22 00:58:53;;;;;;;18.00;13.60;;;;;;;19.72;74.88;94565.00;5017010;28;20102;-84
2022/08/22 01:01:28;;;;;;;20.48;14.13;;;;;;;19.53;75.31;94571.03;5016957;28;20046;-85
2022/08/22 01:04:38;;;;;;;19.83;13.88;;;;;;;18.83;75.66;94486.56;5016688;28;20646;-85
2022/08/22 01:07:43;;;;;;;19.33;13.95;;;;;;;19.00;75.99;94504.28;5017273;28;20151;-85
2022/08/22 01:10:35;;;;;;;20.95;14.70;;;;;;;19.47;75.62;94569.72;5019078;28;20156;-84
2022/08/22 01:13:19;;;;;;;;;;;;;;;19.67;74.84;94570.66;5009751;28;20049;-85
2022/08/22 01:15:49;;;;;;;21.13;14.90;;;;;;;19.34;74.98;94527.88;5017907;28;20479;-84
2022/08/22 01:18:33;;;;;;;20.27;14.75;;;;;;;19.78;74.40;94576.28;5015977;28;20251;-84
2022/08/22 01:21:31;;;;;;;24.23;15.35;;;;;;;19.65;74.99;94572.88;5016724;28;20049;-84
2022/08/22 01:24:18;;;;;;;22.73;15.00;;;;;;;19.73;74.64;94560.41;5015370;28;20049;-85
2022/08/22 01:27:14;;;;;;;21.58;14.07;;;;;;;19.68;74.72;94568.75;5018152;28;20037;-84
2022/08/22 01:30:08;;;;;;;21.40;13.82;;;;;;;19.67;74.95;94572.56;5016963;28;20044;-85
2022/08/22 01:33:10;;;;;;;22.55;14.13;;;;;;;19.87;74.37;94577.69;5018469;28;20037;-85
2022/08/22 01:35:58;;;;;;;20.23;13.73;;;;;;;19.14;73.89;94459.78;5020013;28;20037;-85
2022/08/22 01:38:42;;;;;;;19.80;14.15;;;;;;;19.84;74.48;94578.38;5022348;28;20110;-85
2022/08/22 01:41:39;;;;;;;20.45;14.05;;;;;;;19.92;73.99;94582.03;5020600;28;20126;-84
2022/08/22 01:44:26;;;;;;;20.63;14.85;;;;;;;19.86;74.27;94584.19;5022582;28;20441;-85
2022/08/22 01:47:09;;;;;;;19.35;14.20;;;;;;;20.01;73.47;94580.72;5020812;28;20044;-85
2022/08/22 01:49:57;;;;;;;21.45;15.60;;;;;;;19.53;73.79;94519.94;5020359;28;20140;-84
2022/08/22 01:52:41;;;;;;;24.38;14.77;;;;;;;19.96;73.50;94583.69;5022042;28;20053;-84
2022/08/22 01:55:13;;;;;;;20.02;14.40;;;;;;;19.88;73.90;94579.25;5021717;28;20060;-84
2022/08/22 01:57:53;;;;;;;18.38;13.52;;;;;;;19.08;74.20;94477.25;5020455;28;20043;-84
2022/08/22 02:00:21;;;;;;;19.73;14.43;;;;;;;19.73;74.35;94580.03;5020487;28;20156;-85
2022/08/22 02:03:05;;;;;;;19.27;13.80;;;;;;;19.80;73.84;94569.44;5019869;28;20052;-84
2022/08/22 02:05:50;;;;;;;20.70;15.40;;;;;;;19.80;73.98;94579.41;5019896;28;20060;-84
2022/08/22 02:08:37;;;;;;;21.73;14.73;;;;;;;19.86;74.17;94572.66;5020882;28;20060;-83
2022/08/22 02:11:05;;;;;;;18.33;14.15;;;;;;;19.99;73.50;94571.44;5019765;28;20033;-84
2022/08/22 02:13:48;;;;;;;21.80;15.05;;;;;;;19.97;73.07;94568.31;5019919;28;20041;-85
2022/08/22 02:16:34;;;;;;;22.45;15.18;;;;;;;20.01;72.84;94569.97;5019586;28;20041;-84
2022/08/22 02:19:14;;;;;;;23.65;15.48;;;;;;;19.95;73.27;94581.34;5021740;28;20038;-84
2022/08/22 02:22:05;;;;;;;21.98;15.50;;;;;;;19.82;72.82;94542.97;5021257;28;20045;-85
2022/08/22 02:25:11;;;;;;;22.13;16.95;;;;;;;19.83;73.66;94573.34;5019798;28;20105;-84
2022/08/22 02:27:42;;;;;;;26.92;15.68;;;;;;;19.95;73.32;94578.66;5019572;28;20049;-84
2022/08/22 02:30:13;;;;;;;21.15;15.57;;;;;;;19.77;72.72;94537.06;5019749;28;20052;-84
2022/08/22 02:32:39;;;;;;;24.98;16.75;;;;;;;19.93;73.16;94575.50;5019312;28;20049;-85
2022/08/22 02:35:19;;;;;;;28.23;17.45;;;;;;;19.73;73.83;94569.25;5019263;28;20041;-85
2022/08/22 02:37:48;;;;;;;22.93;17.07;;;;;;;19.78;73.67;94573.59;5019415;28;20489;-85
2022/08/22 02:40:24;;;;;;;27.35;17.50;;;;;;;19.79;73.88;94569.78;5019390;28;20079;-85
2022/08/22 02:43:08;;;;;;;28.08;16.23;;;;;;;19.24;73.20;94474.59;5019518;28;20045;-85
2022/08/22 02:45:53;;;;;;;25.33;17.25;;;;;;;19.02;74.38;94502.03;5018887;28;20037;-84
2022/08/22 02:48:18;;;;;;;25.48;17.10;;;;;;;19.61;74.36;94580.06;5019681;28;20369;-84
2022/08/22 02:51:08;;;;;;;26.98;17.60;;;;;;;19.28;74.34;94543.47;5020163;28;20447;-85
2022/08/22 02:53:52;;;;;;;28.48;18.17;;;;;;;19.53;74.47;94583.72;5019485;28;20038;-84
2022/08/22 02:56:21;;;;;;;31.52;19.45;;;;;;;19.37;75.21;94580.19;5020697;28;20048;-84
2022/08/22 02:59:11;;;;;;;27.25;18.38;;;;;;;19.32;75.46;94585.78;5019818;28;20041;-84
2022/08/22 03:01:44;;;;;;;23.95;18.52;;;;;;;19.34;74.75;94570.09;5019107;28;20437;-84
2022/08/22 03:04:39;;;;;;;27.55;17.92;;;;;;;19.27;74.91;94573.38;5019728;28;20041;-85
2022/08/22 03:07:44;;;;;;;27.55;17.02;;;;;;;19.36;75.16;94581.31;5001897;28;20061;-85
2022/08/22 03:10:22;;;;;;;25.85;17.83;;;;;;;19.22;75.86;94584.38;5018073;28;20657;-85
2022/08/22 03:12:58;;;;;;;28.45;19.10;;;;;;;19.37;75.07;94582.88;5020439;28;20043;-85
2022/08/22 03:15:38;;;;;;;30.10;18.50;;;;;;;19.01;75.68;94548.84;5020681;28;20575;-84
2022/08/22 03:18:04;;;;;;;27.55;18.73;;;;;;;19.23;75.50;94586.72;5019415;28;20079;-84
2022/08/22 03:20:48;;;;;;;31.02;19.27;;;;;;;19.33;75.27;94584.66;5018614;28;20583;-85
2022/08/22 03:23:45;;;;;;;25.17;18.63;;;;;;;19.12;75.86;94592.94;5018402;28;20045;-84
2022/08/22 03:26:28;;;;;;;31.05;18.73;;;;;;;19.02;76.25;94593.41;5018843;28;20091;-85
2022/08/22 03:29:19;;;;;;;31.67;18.73;;;;;;;18.55;76.38;94512.56;5019577;28;20041;-84
2022/08/22 03:32:12;;;;;;;30.08;20.15;;;;;;;18.94;75.62;94559.38;5018903;28;20056;-85
2022/08/22 03:35:07;;;;;;;31.90;19.27;;;;;;;18.38;76.62;94519.78;5019181;28;20120;-84
2022/08/22 03:37:39;;;;;;;37.70;20.17;;;;;;;19.02;76.75;94588.81;5018431;28;20037;-84
2022/08/22 03:40:23;;;;;;;28.52;19.02;;;;;;;19.16;75.84;94591.88;5020244;28;20044;-84
2022/08/22 03:43:00;;;;;;;31.15;19.00;;;;;;;19.05;75.87;94582.75;5020392;28;20130;-85
2022/08/22 03:45:59;;;;;;;26.30;18.92;;;;;;;19.05;75.63;94593.50;5018901;28;20047;-85
2022/08/22 03:48:25;;;;;;;31.52;20.45;;;;;;;18.79;77.06;94593.91;5018178;28;20040;-84
2022/08/22 03:51:00;;;;;;;29.23;18.92;;;;;;;18.96;76.21;94595.53;5018607;28;20064;-84
2022/08/22 03:53:35;;;;;;;33.38;20.00;;;;;;;19.15;75.46;94594.91;5019961;28;20088;-85
2022/08/22 03:56:06;;;;;;;28.50;20.05;;;;;;;19.02;75.62;94594.19;5017839;28;20255;-84
2022/08/22 03:58:52;;;;;;;32.47;18.27;;;;;;;18.97;75.63;94591.75;5018088;28;20567;-84
2022/08/22 04:01:47;;;;;;;26.85;17.85;;;;;;;18.56;75.38;94517.63;5017964;28;20041;-84
2022/08/22 04:04:50;;;;;;;32.95;19.05;;;;;;;19.09;74.97;94589.00;5018979;28;20041;-84
2022/08/22 04:07:40;;;;;;;30.55;18.73;;;;;;;19.17;75.07;94581.91;5018602;28;20139;-84
2022/08/22 04:10:32;;;;;;;28.25;17.63;;;;;;;19.32;74.04;94586.56;5020428;28;20567;-85
2022/08/22 04:13:40;;;;;;;25.02;17.88;;;;;;;19.31;74.35;94592.28;5019628;28;20388;-85
2022/08/22 04:16:30;;;;;;;32.13;19.48;;;;;;;19.41;73.97;94589.91;5034484;28;20091;-84
2022/08/22 04:19:17;;;;;;;28.00;18.23;;;;;;;19.10;74.90;94589.78;5021739;28;20467;-85
2022/08/22 04:21:51;;;;;;;33.60;19.58;;;;;;;19.14;75.06;94588.00;5020707;28;20033;-85
2022/08/22 04:24:34;;;;;;;33.60;19.65;;;;;;;18.73;75.14;94528.09;5021853;28;20115;-84
2022/08/22 04:27:15;;;;;;;29.73;18.63;;;;;;;19.17;74.77;94590.78;5019469;28;20037;-84
2022/08/22 04:29:48;;;;;;;24.98;18.30;;;;;;;18.77;75.54;94555.84;5019345;28;20652;-84
2022/08/22 04:32:28;;;;;;;25.75;17.25;;;;;;;18.92;75.47;94567.03;5020568;28;20044;-84
2022/08/22 04:35:05;;;;;;;29.52;17.83;;;;;;;18.62;75.57;94537.75;5018011;28;20033;-84
2022/08/22 04:37:40;;;;;;;25.80;17.48;;;;;;;18.44;76.46;94556.00;5017888;28;20128;-85
2022/08/22 04:40:17;;;;;;;33.30;19.08;;;;;;;18.49;76.33;94547.72;5020425;28;20579;-86
2022/08/22 04:42:55;;;;;;;33.63;19.45;;;;;;;18.36;76.64;94529.28;5017799;28;20034;-84
2022/08/22 04:45:45;;;;;;;28.52;18.77;;;;;;;18.41;75.79;94505.66;5020401;28;20047;-84
2022/08/22 04:48:25;;;;;;;29.17;18.33;;;;;;;18.49;76.40;94533.50;5017949;28;20048;-84
2022/08/22 04:50:53;;;;;;;38.03;18.77;;;;;;;19.04;76.29;94597.31;5019522;28;20045;-84
2022/08/22 04:53:39;;;;;;;36.50;18.67;;;;;;;18.55;75.23;94488.38;5019230;28;20500;-84
2022/08/22 04:56:27;;;;;;;34.05;18.77;;;;;;;19.08;74.63;94555.19;5019148;28;20037;-84
2022/08/22 04:58:59;;;;;;;27.33;17.40;;;;;;;19.04;74.07;94524.75;5018524;28;20520;-85
2022/08/22 05:01:41;;;;;;;;;;;;;;;19.54;74.16;94604.88;5018838;28;20076;-85
2022/08/22 05:04:35;;;;;;;32.45;19.30;;;;;;;18.71;73.58;94454.34;5017058;28;20359;-85
2022/08/22 05:07:24;;;;;;;28.02;18.48;;;;;;;19.23;73.69;94562.53;5015225;28;20057;-84
2022/08/22 05:10:05;;;;;;;34.05;17.65;;;;;;;19.14;74.00;94566.50;5022831;28;20041;-84
2022/08/22 05:12:35;;;;;;;36.95;17.90;;;;;;;19.82;73.13;94612.94;5021845;28;20491;-84
2022/08/22 05:15:17;;;;;;;26.30;16.75;;;;;;;19.83;73.24;94617.19;5021849;28;20088;-85
2022/08/22 05:17:47;;;;;;;27.88;15.52;;;;;;;19.14;73.53;94520.81;5021376;28;20129;-85
2022/08/22 05:20:18;;;;;;;27.55;16.98;;;;;;;19.31;72.97;94533.13;5021484;28;20057;-85
2022/08/22 05:22:49;;;;;;;28.45;17.05;;;;;;;19.56;72.67;94559.59;5021106;28;20033;-86
2022/08/22 05:25:19;;;;;;;27.40;17.65;;;;;;;19.90;72.31;94593.16;5023138;28;20109;-84
2022/08/22 05:27:49;;;;;;;25.80;17.08;;;;;;;20.02;71.57;94605.72;5021729;28;20677;-85
2022/08/22 05:30:25;;;;;;;24.38;15.57;;;;;;;19.58;71.51;94535.84;5021749;28;20037;-85
2022/08/22 05:33:09;;;;;;;25.27;16.42;;;;;;;19.99;72.65;94633.34;5022590;28;20114;-85
2022/08/22 05:35:45;;;;;;;27.15;16.95;;;;;;;19.30;72.28;94513.53;5022252;28;20038;-84
2022/08/22 05:38:14;;;;;;;29.33;17.88;;;;;;;19.70;71.89;94563.78;5023695;28;20033;-85
2022/08/22 05:40:42;;;;;;;27.75;17.45;;;;;;;19.88;71.88;94581.16;5022661;28;20510;-85
2022/08/22 05:43:11;;;;;;;26.90;17.10;;;;;;;19.59;72.10;94532.03;5020300;28;20499;-85
2022/08/22 05:45:43;;;;;;;34.80;18.98;;;;;;;20.37;72.11;94633.56;5021276;28;20388;-85
2022/08/22 05:48:19;;;;;;;40.35;19.42;;;;;;;20.24;71.25;94599.75;5021875;28;20427;-85
2022/08/22 05:50:54;;;;;;;36.25;19.08;;;;;;;20.22;70.90;94593.13;5024450;28;20144;-85
2022/08/22 05:53:40;;;;;;;29.63;17.52;;;;;;;20.39;71.33;94652.84;5021170;28;20099;-85
2022/08/22 05:56:25;;;;;;;31.30;19.65;;;;;;;20.33;71.39;94658.81;5022032;28;20047;-85
2022/08/22 05:58:58;;;;;;;28.35;18.30;;;;;;;20.56;70.98;94665.19;5020725;28;20045;-85
2022/08/22 06:01:34;;;;;;;30.13;19.67;;;;;;;20.69;70.50;94663.16;5022503;28;20166;-85
2022/08/22 06:04:03;;;;;;;33.95;19.45;;;;;;;20.72;70.33;94663.25;5020310;28;20350;-85
2022/08/22 06:06:33;;;;;;;30.77;18.52;;;;;;;20.16;70.97;94632.22;5021089;28;20049;-85
2022/08/22 06:09:21;;;;;;;24.60;14.85;;;;;;;20.68;69.01;94657.00;5020754;28;20043;-85
2022/08/22 06:12:14;;;;;;;30.52;17.15;;;;;;;20.47;69.47;94643.03;5020397;28;20132;-85
2022/08/22 06:14:58;;;;;;;24.50;15.82;;;;;;;20.68;69.67;94664.28;5019276;28;20144;-85
2022/08/22 06:17:46;;;;;;;13.20;9.63;;;;;;;20.39;67.25;94628.59;5022109;28;20114;-85
2022/08/22 06:20:19;;;;;;;16.83;10.68;;;;;;;20.63;67.13;94664.56;5019524;28;20033;-85
2022/08/22 06:22:53;;;;;;;16.17;10.05;;;;;;;20.70;66.21;94641.25;5020197;28;20037;-84
2022/08/22 06:25:31;;;;;;;21.05;12.07;;;;;;;20.55;66.90;94609.75;5020340;28;20404;-85
2022/08/22 06:28:02;;;;;;;24.45;13.98;;;;;;;20.37;67.25;94587.78;5021805;28;20175;-86
2022/08/22 06:30:29;;;;;;;18.35;12.77;;;;;;;20.31;68.03;94632.22;5019586;28;20033;-84
2022/08/22 06:33:01;;;;;;;22.40;12.55;;;;;;;19.58;68.67;94513.53;5020657;28;20068;-85
2022/08/22 06:36:29;;;;;;;18.13;11.68;;;;;;;19.87;68.02;94537.31;5021746;28;20040;-84
2022/08/22 06:38:25;;;;;;;32.85;11.63;;;;;;;20.40;67.53;94629.41;5021198;28;20037;-84
2022/08/22 06:40:53;;;;;;;15.52;10.18;;;;;;;20.78;66.91;94672.63;5022441;28;20156;-84
2022/08/22 06:43:21;;;;;;;12.90;9.90;;;;;;;20.37;66.54;94587.00;5019641;28;20557;-84
2022/08/22 06:45:48;;;;;;;16.23;9.85;;;;;;;20.62;66.11;94588.34;5022160;28;20060;-85
2022/08/22 06:48:22;;;;;;;18.45;10.02;;;;;;;21.12;65.82;94675.72;5016404;28;20033;-85
2022/08/22 06:50:52;;;;;;;17.70;10.98;;;;;;;20.80;66.05;94650.72;5019137;28;20608;-85
2022/08/22 06:53:24;;;;;;;15.85;9.85;;;;;;;20.42;65.81;94598.28;5019044;28;20025;-85
2022/08/22 06:55:53;;;;;;;15.70;10.52;;;;;;;21.25;65.52;94673.69;5018428;28;20076;-85
2022/08/22 06:58:27;;;;;;;23.73;11.30;;;;;;;20.52;66.08;94553.09;5016040;28;20371;-84
2022/08/22 07:01:20;;;;;;;22.75;10.07;;;;;;;20.55;66.29;94608.97;5003650;28;20029;-85
2022/08/22 07:03:51;;;;;;;14.52;9.88;;;;;;;21.43;65.22;94667.56;5017895;28;20111;-85
2022/08/22 07:06:22;;;;;;;16.67;10.43;;;;;;;20.90;64.23;94572.03;5018821;28;20646;-85
2022/08/22 07:08:52;;;;;;;;;;;;;;;21.55;64.46;94647.75;5020989;28;20052;-85
2022/08/22 07:11:26;;;;;;;20.85;10.65;;;;;;;21.87;63.54;94661.84;5021296;28;20036;-84
2022/08/22 07:13:59;;;;;;;18.63;10.68;;;;;;;20.88;63.32;94525.00;5000923;28;20421;-85
2022/08/22 07:16:32;;;;;;;17.90;10.40;;;;;;;20.84;63.51;94524.91;5018415;28;20543;-85
2022/08/22 07:18:59;;;;;;;18.58;10.75;;;;;;;21.71;63.17;94637.66;5017336;28;20041;-85
2022/08/22 07:21:41;;;;;;;22.02;11.57;;;;;;;22.00;62.89;94676.78;5014876;28;20045;-85
2022/08/22 07:24:10;;;;;;;18.42;10.55;;;;;;;21.67;62.52;94604.41;5005414;28;20402;-85
2022/08/22 07:26:45;;;;;;;23.48;11.07;;;;;;;22.12;62.95;94679.34;5018610;28;20126;-85
2022/08/22 07:29:41;;;;;;;18.77;10.60;;;;;;;22.31;62.02;94681.19;5018952;28;20583;-84
2022/08/22 07:32:13;;;;;;;20.52;10.00;;;;;;;21.68;63.10;94669.94;5018672;28;20716;-85
2022/08/22 07:34:57;;;;;;;16.27;10.13;;;;;;;21.86;63.08;94673.78;5007175;28;20484;-84
2022/08/22 07:38:18;;;;;;;16.05;9.38;;;;;;;22.18;62.22;94680.59;5011948;28;20123;-84
2022/08/22 07:41:04;;;;;;;19.92;10.23;;;;;;;22.01;62.71;94656.75;4971154;28;20068;-85
2022/08/22 07:43:40;;;;;;;24.10;10.90;;;;;;;22.30;62.57;94656.09;5017413;28;20047;-85
2022/08/22 07:46:23;;;;;;;20.05;11.13;;;;;;;22.61;62.09;94667.81;5001815;28;20044;-85
2022/08/22 07:48:53;;;;;;;15.57;9.95;;;;;;;22.40;61.65;94581.78;5016114;28;20423;-84
2022/08/22 07:51:34;;;;;;;25.17;11.93;;;;;;;22.73;61.11;94647.94;5017700;28;20475;-84
2022/08/22 07:54:05;;;;;;;20.95;11.45;;;;;;;22.17;61.53;94587.22;5019123;28;20061;-86
2022/08/22 07:56:36;;;;;;;17.08;11.88;;;;;;;22.24;62.28;94621.66;5017954;28;20038;-86
2022/08/22 07:59:06;;;;;;;;;;;;;;;22.63;62.12;94666.31;5018445;28;20080;-85
2022/08/22 08:01:32;;;;;;;18.27;10.10;;;;;;;22.67;61.52;94631.22;5030596;28;20337;-86
2022/08/22 08:04:11;;;;;;;17.40;11.27;;;;;;;21.87;60.33;94519.56;5011209;28;20037;-86
2022/08/22 08:06:38;;;;;;;24.70;12.18;;;;;;;22.98;60.71;94673.41;5017496;28;20183;-86
2022/08/22 08:09:05;;;;;;;18.67;11.00;;;;;;;23.09;60.32;94650.81;5004101;28;20479;-86
2022/08/22 08:11:38;;;;;;;23.75;11.65;;;;;;;22.81;59.80;94585.50;5012729;28;20135;-86
2022/08/22 08:14:07;;;;;;;16.45;10.98;;;;;;;22.97;60.35;94629.38;5017702;28;20076;-86
2022/08/22 08:16:59;;;;;;;22.40;11.52;;;;;;;23.26;60.10;94657.63;5019143;28;20166;-86
2022/08/22 08:19:25;;;;;;;20.13;11.50;;;;;;;23.18;58.94;94614.59;5018823;28;20043;-84
2022/08/22 08:21:54;;;;;;;14.25;10.35;;;;;;;23.62;59.25;94636.44;5016717;28;20045;-85
2022/08/22 08:24:32;;;;;;;17.85;10.82;;;;;;;23.76;58.29;94626.53;5019768;28;20041;-84
2022/08/22 08:29:54;;;;;;;18.30;10.27;;;;;;;23.23;58.03;94544.72;5019328;28;20493;-84
2022/08/22 08:32:23;;;;;;;20.17;10.90;;;;;;;23.93;57.37;94603.50;5006271;28;20045;-84
2022/08/22 08:34:51;;;;;;;20.67;12.25;;;;;;;24.18;56.31;94622.72;4999156;28;20034;-84
2022/08/22 08:37:32;;;;;;;17.15;11.23;;;;;;;24.44;56.03;94660.53;4999203;28;20563;-85
2022/08/22 08:40:01;;;;;;;17.00;10.20;;;;;;;23.55;56.07;94539.69;4999421;28;20055;-85
2022/08/22 08:42:26;;;;;;;16.30;10.90;;;;;;;24.32;56.84;94657.31;5016775;28;20387;-85
2022/08/22 08:45:14;;;;;;;16.05;10.65;;;;;;;24.25;57.37;94654.56;5015540;28;20037;-85
2022/08/22 08:48:15;;;;;;;18.05;11.27;;;;;;;24.12;56.31;94654.78;4997266;28;20073;-85
2022/08/22 08:51:08;;;;;;;19.45;11.27;;;;;;;24.35;56.18;94660.06;4995048;28;20411;-85
2022/08/22 08:54:08;;;;;;;20.85;10.90;;;;;;;24.13;57.09;94660.97;5018443;28;20033;-85
2022/08/22 08:56:52;;;;;;;20.15;11.15;;;;;;;24.20;56.28;94653.72;5018155;28;20042;-86
2022/08/22 08:59:53;;;;;;;27.00;12.02;;;;;;;24.33;56.50;94650.75;5012291;28;20483;-85
2022/08/22 09:02:21;;;;;;;16.17;10.70;;;;;;;24.38;56.43;94648.47;5018281;28;20068;-85
2022/08/22 09:05:06;;;;;;;21.80;11.05;;;;;;;24.38;57.94;94653.91;5016753;28;20041;-85
2022/08/22 09:07:50;;;;;;;21.98;11.90;;;;;;;24.48;56.44;94650.50;5017169;28;20997;-85
2022/08/22 09:10:29;;;;;;;22.05;11.25;;;;;;;24.03;55.92;94578.44;5017186;28;20048;-85
2022/08/22 09:13:05;;;;;;;16.83;11.30;;;;;;;24.46;55.50;94647.38;5018063;28;20061;-86
2022/08/22 09:15:53;;;;;;;18.17;11.35;;;;;;;23.98;55.37;94543.59;5016580;28;20087;-85
2022/08/22 09:18:52;;;;;;;16.85;10.93;;;;;;;24.68;55.32;94645.63;5017016;28;20037;-85
2022/08/22 09:21:39;;;;;;;21.35;11.60;;;;;;;24.84;54.05;94645.38;5017526;28;20076;-85
2022/08/22 09:24:34;;;;;;;17.77;10.45;;;;;;;24.76;54.63;94641.03;5016940;28;20061;-85
2022/08/22 09:27:10;;;;;;;20.88;12.02;;;;;;;24.17;54.21;94537.97;5017740;28;20033;-85
2022/08/22 09:29:55;;;;;;;19.60;11.00;;;;;;;24.93;54.34;94640.41;5017761;28;20029;-85
2022/08/22 09:32:44;;;;;;;19.42;11.70;;;;;;;24.84;53.89;94597.31;5019402;28;20034;-85
2022/08/22 09:35:22;;;;;;;26.48;11.40;;;;;;;24.83;55.01;94612.03;5004937;28;20041;-85
2022/08/22 09:38:00;;;;;;;19.48;10.80;;;;;;;25.29;54.29;94636.75;5011533;28;20033;-85
2022/08/22 09:40:42;;;;;;;14.38;10.05;;;;;;;24.80;53.08;94558.53;5018679;28;20121;-85
2022/08/22 09:43:22;;;;;;;19.58;10.35;;;;;;;25.56;52.08;94637.25;5022646;28;20047;-85
2022/08/22 09:45:56;;;;;;;13.52;9.65;;;;;;;25.68;52.37;94636.19;5002977;28;20464;-86
2022/08/22 09:48:46;;;;;;;14.55;11.38;;;;;;;25.72;53.39;94628.81;4999016;28;20121;-85
2022/08/22 09:51:49;;;;;;;20.90;10.27;;;;;;;25.32;53.90;94567.38;5017709;28;20361;-85
2022/08/22 09:54:28;;;;;;;16.45;10.18;;;;;;;25.74;51.14;94594.69;5016923;28;20064;-85
2022/08/22 09:57:14;;;;;;;22.38;10.90;;;;;;;25.58;51.21;94586.09;5011662;28;20045;-86
2022/08/22 09:59:50;;;;;;;15.85;10.77;;;;;;;26.30;50.36;94614.25;5012740;28;20136;-85
2022/08/22 10:02:41;;;;;;;26.52;10.80;;;;;;;26.75;48.58;94601.81;5017516;28;20485;-85
2022/08/22 10:05:34;;;;;;;18.52;10.82;;;;;;;27.57;47.40;94607.88;5008920;28;20095;-85
2022/08/22 10:07:59;;;;;;;22.75;11.23;;;;;;;28.26;45.91;94605.19;5019939;28;20049;-85
2022/08/22 10:10:34;;;;;;;16.00;9.27;;;;;;;28.77;45.17;94604.44;5022197;28;20582;-85
2022/08/22 10:13:25;;;;;;;15.18;9.13;;;;;;;28.02;45.39;94500.59;5020347;28;20075;-85
2022/08/22 10:15:59;;;;;;;12.95;8.52;;;;;;;29.17;44.65;94597.41;5019462;28;20132;-85
2022/08/22 10:18:42;;;;;;;11.80;8.55;;;;;;;29.73;43.10;94570.66;5015575;28;20120;-85
2022/08/22 10:21:20;;;;;;;14.48;8.60;;;;;;;30.12;40.57;94596.72;5008656;28;20029;-85
2022/08/22 10:24:22;;;;;;;17.10;8.35;;;;;;;29.47;40.37;94400.03;5019398;28;20441;-85
2022/08/22 10:26:52;;;;;;;13.82;8.18;;;;;;;31.18;38.74;94551.22;5019615;28;20029;-85
2022/08/22 10:29:57;;;;;;;23.42;9.00;;;;;;;32.19;36.94;94576.19;5006363;28;20576;-85
2022/08/22 10:32:46;;;;;;;9.27;7.50;;;;;;;32.72;36.07;94574.94;5019211;28;20190;-85
2022/08/22 10:35:29;;;;;;;10.35;7.65;;;;;;;33.13;33.37;94563.25;5004075;28;20057;-85
2022/08/22 10:38:10;;;;;;;10.73;7.53;;;;;;;32.76;33.39;94511.69;5019383;28;20043;-85
2022/08/22 10:40:42;;;;;;;13.75;8.27;;;;;;;32.88;33.24;94568.66;5018988;28;20061;-86
2022/08/22 10:43:22;;;;;;;13.55;8.25;;;;;;;32.01;34.20;94507.19;5018213;28;20092;-85
2022/08/22 10:45:59;;;;;;;14.18;7.70;;;;;;;31.63;35.27;94548.75;5018975;28;20038;-85
2022/08/22 10:48:29;;;;;;;11.70;7.78;;;;;;;30.87;37.18;94569.72;5019022;28;20180;-85
2022/08/22 10:51:15;;;;;;;10.88;8.18;;;;;;;30.07;37.55;94469.44;5018618;28;20587;-85
2022/08/22 10:54:38;;;;;;;13.70;8.13;;;;;;;30.47;38.04;94557.88;5017206;28;20040;-85
2022/08/22 10:57:36;;;;;;;11.10;7.75;;;;;;;29.99;38.81;94500.03;5019508;28;20045;-85
2022/08/22 11:00:13;;;;;;;14.48;8.52;;;;;;;30.55;38.52;94556.59;5027182;28;20045;-85
2022/08/22 11:02:49;;;;;;;15.43;8.93;;;;;;;30.90;38.42;94557.16;5005692;28;20521;-85
2022/08/22 11:05:26;;;;;;;15.00;9.27;;;;;;;31.17;37.06;94507.78;5019267;28;20132;-86
2022/08/22 11:08:18;;;;;;;14.35;8.55;;;;;;;31.78;35.98;94543.75;5008188;28;20475;-85
2022/08/22 11:11:03;;;;;;;11.43;9.02;;;;;;;31.50;36.30;94547.06;5010958;28;20099;-86
2022/08/22 11:14:00;;;;;;;13.35;8.55;;;;;;;30.87;37.52;94547.84;5019983;28;20037;-85
2022/08/22 11:16:34;;;;;;;16.67;9.43;;;;;;;30.89;37.50;94541.94;4999755;28;20037;-85
2022/08/22 11:19:14;;;;;;;14.63;8.50;;;;;;;30.86;37.48;94543.56;5016053;28;20060;-85
2022/08/22 11:21:58;;;;;;;13.88;9.13;;;;;;;31.05;37.49;94547.50;4997852;28;20041;-85
2022/08/22 11:24:30;;;;;;;13.18;8.75;;;;;;;30.63;38.05;94543.56;4997938;28;20037;-85
2022/08/22 11:27:33;;;;;;;18.63;9.10;;;;;;;30.13;38.81;94535.38;5001545;28;20500;-86
2022/08/22 11:30:29;;;;;;;16.25;9.45;;;;;;;30.04;39.35;94541.34;5009319;28;20045;-85
2022/08/22 11:32:57;;;;;;;16.50;8.77;;;;;;;30.08;39.62;94536.59;5003478;28;20501;-85
2022/08/22 11:35:43;;;;;;;13.95;8.57;;;;;;;30.10;40.27;94545.16;4997435;28;20034;-85
2022/08/22 11:38:27;;;;;;;18.45;9.30;;;;;;;29.92;40.69;94550.06;4998957;28;20076;-85
2022/08/22 11:41:07;;;;;;;13.38;8.48;;;;;;;28.71;41.37;94382.28;4999455;28;20061;-85
2022/08/22 11:43:47;;;;;;;15.50;8.15;;;;;;;29.77;41.63;94532.31;5019358;28;20037;-85
2022/08/22 11:46:30;;;;;;;16.98;9.15;;;;;;;29.52;41.72;94538.16;5018420;28;20797;-85
2022/08/22 11:49:15;;;;;;;12.25;7.53;;;;;;;29.37;41.75;94543.00;5017489;28;20065;-85
2022/08/22 11:52:01;;;;;;;11.65;8.73;;;;;;;28.39;43.26;94434.47;5017370;28;20037;-85
2022/08/22 11:54:36;;;;;;;18.40;8.20;;;;;;;29.10;43.11;94531.97;5013001;28;20428;-85
2022/08/22 11:57:17;;;;;;;13.40;8.90;;;;;;;28.82;43.39;94474.22;5018191;28;20120;-85
2022/08/22 12:00:11;;;;;;;13.70;8.68;;;;;;;29.52;41.52;94533.44;5019297;28;20068;-85
2022/08/22 12:02:56;;;;;;;20.50;8.18;;;;;;;30.12;41.81;94526.41;5019761;28;20072;-85
2022/08/22 12:05:31;;;;;;;10.90;7.60;;;;;;;30.15;39.14;94492.72;4982815;28;20492;-85
2022/08/22 12:08:14;;;;;;;10.52;7.97;;;;;;;29.78;38.10;94419.09;5017933;28;20053;-85
2022/08/22 12:10:53;;;;;;;15.27;7.50;;;;;;;30.45;38.65;94460.97;5017885;28;20242;-85
2022/08/22 12:13:28;;;;;;;17.50;7.90;;;;;;;30.60;37.52;94445.88;5019773;28;20033;-85
2022/08/22 12:16:28;;;;;;;14.40;8.13;;;;;;;31.55;36.41;94484.31;5017826;28;20041;-85
2022/08/22 12:19:04;;;;;;;14.90;8.15;;;;;;;31.95;35.91;94487.75;5013170;28;20077;-85
2022/08/22 12:21:33;;;;;;;14.90;6.70;;;;;;;32.07;36.06;94503.50;5016579;28;20068;-85
2022/08/22 12:24:08;;;;;;;11.90;7.13;;;;;;;32.29;36.51;94495.56;5017067;28;20479;-85
2022/08/22 12:27:07;;;;;;;10.45;6.78;;;;;;;31.66;35.25;94383.44;5019410;28;20451;-85
2022/08/22 12:30:06;;;;;;;11.77;6.55;;;;;;;31.51;36.53;94422.56;5017011;28;20071;-85